createdAt,value
2022-11-20T00:00:00.400Z,78.09
2022-11-20T00:01:10.167Z,78.09
2022-11-20T00:02:00.297Z,78.09
2022-11-20T00:03:00.270Z,77.98
2022-11-20T00:04:00.381Z,77.98
2022-11-20T00:05:00.293Z,77.98
2022-11-20T00:06:01.155Z,77.98
2022-11-20T00:07:00.307Z,77.98
2022-11-20T00:08:00.465Z,77.88
2022-11-20T00:09:00.612Z,77.88
2022-11-20T00:10:00.284Z,77.88
2022-11-20T00:11:04.649Z,77.88
2022-11-20T00:12:00.320Z,77.88
2022-11-20T00:13:00.308Z,77.73
2022-11-20T00:14:01.046Z,77.73
2022-11-20T00:15:00.322Z,77.73
2022-11-20T00:16:01.417Z,77.73
2022-11-20T00:17:00.277Z,77.73
2022-11-20T00:18:00.289Z,77.53
2022-11-20T00:19:00.603Z,77.53
2022-11-20T00:20:00.269Z,77.53
2022-11-20T00:21:01.412Z,77.53
2022-11-20T00:22:00.251Z,77.53
2022-11-20T00:23:00.251Z,77.43
2022-11-20T00:24:00.250Z,77.43
2022-11-20T00:25:00.311Z,77.43
2022-11-20T00:26:02.540Z,77.43
2022-11-20T00:27:00.239Z,77.43
2022-11-20T00:28:00.278Z,77.39
2022-11-20T00:29:00.761Z,77.39
2022-11-20T00:30:00.252Z,77.39
2022-11-20T00:31:01.352Z,77.39
2022-11-20T00:32:00.237Z,77.39
2022-11-20T00:33:00.268Z,77.09
2022-11-20T00:34:00.285Z,77.09
2022-11-20T00:35:00.266Z,77.09
2022-11-20T00:36:01.898Z,77.09
2022-11-20T00:37:00.272Z,77.09
2022-11-20T00:38:00.293Z,76.95
2022-11-20T00:39:00.305Z,76.95
2022-11-20T00:40:00.257Z,76.95
2022-11-20T00:41:01.453Z,76.95
2022-11-20T00:42:00.279Z,76.95
2022-11-20T00:43:00.238Z,76.82
2022-11-20T00:44:00.286Z,76.82
2022-11-20T00:45:00.260Z,76.82
2022-11-20T00:46:00.998Z,76.82
2022-11-20T00:47:00.258Z,76.82
2022-11-20T00:48:00.265Z,76.82
2022-11-20T00:49:00.259Z,76.82
2022-11-20T00:50:00.297Z,76.82
2022-11-20T00:51:00.463Z,76.82
2022-11-20T00:52:00.297Z,76.82
2022-11-20T00:53:00.242Z,76.76
2022-11-20T00:54:00.246Z,76.76
2022-11-20T00:55:00.416Z,76.76
2022-11-20T00:56:01.288Z,76.76
2022-11-20T00:57:00.277Z,76.76
2022-11-20T00:58:04.301Z,76.70
2022-11-20T00:59:00.504Z,76.70
2022-11-20T01:00:00.341Z,76.70
2022-11-20T01:01:02.594Z,76.70
2022-11-20T01:02:00.239Z,76.70
2022-11-20T01:03:00.276Z,76.58
2022-11-20T01:04:00.274Z,76.58
2022-11-20T01:05:00.255Z,76.58
2022-11-20T01:06:01.071Z,76.58
2022-11-20T01:07:00.302Z,76.58
2022-11-20T01:08:00.256Z,76.52
2022-11-20T01:09:02.095Z,76.52
2022-11-20T01:10:00.270Z,76.52
2022-11-20T01:11:01.071Z,76.52
2022-11-20T01:12:00.252Z,76.52
2022-11-20T01:13:00.247Z,76.06
2022-11-20T01:14:01.239Z,76.06
2022-11-20T01:15:00.269Z,76.06
2022-11-20T01:16:10.163Z,76.06
2022-11-20T01:17:00.253Z,76.06
2022-11-20T01:18:00.282Z,75.88
2022-11-20T01:19:01.157Z,75.88
2022-11-20T01:20:00.241Z,75.88
2022-11-20T01:21:01.311Z,75.88
2022-11-20T01:22:00.294Z,75.88
2022-11-20T01:23:00.257Z,75.65
2022-11-20T01:24:00.621Z,75.65
2022-11-20T01:25:00.268Z,75.65
2022-11-20T01:26:02.371Z,75.65
2022-11-20T01:27:00.283Z,75.65
2022-11-20T01:28:00.312Z,75.48
2022-11-20T01:29:00.838Z,75.48
2022-11-20T01:30:01.469Z,75.48
2022-11-20T01:31:00.788Z,75.48
2022-11-20T01:32:00.298Z,75.48
2022-11-20T01:33:00.244Z,75.29
2022-11-20T01:34:02.009Z,75.29
2022-11-20T01:35:00.293Z,75.29
2022-11-20T01:36:04.963Z,75.29
2022-11-20T01:37:00.263Z,75.29
2022-11-20T01:38:00.287Z,74.90
2022-11-20T01:39:01.108Z,74.90
2022-11-20T01:40:00.390Z,74.90
2022-11-20T01:41:00.433Z,74.90
2022-11-20T01:42:00.293Z,74.90
2022-11-20T01:43:10.170Z,74.53
2022-11-20T01:44:00.398Z,74.53
2022-11-20T01:45:00.304Z,74.53
2022-11-20T01:46:00.233Z,74.53
2022-11-20T01:47:02.724Z,74.53
2022-11-20T01:48:00.324Z,74.23
2022-11-20T01:49:04.052Z,74.23
2022-11-20T01:50:01.262Z,74.23
2022-11-20T01:51:00.830Z,74.23
2022-11-20T01:52:03.837Z,74.23
2022-11-20T01:53:04.095Z,74.10
2022-11-20T01:54:02.964Z,74.10
2022-11-20T01:55:04.036Z,74.10
2022-11-20T01:56:01.320Z,74.10
2022-11-20T01:57:00.784Z,74.10
2022-11-20T01:58:01.203Z,73.97
2022-11-20T01:59:01.593Z,73.97
2022-11-20T02:00:04.665Z,73.97
2022-11-20T02:01:00.514Z,73.97
2022-11-20T02:02:00.452Z,73.97
2022-11-20T02:03:03.300Z,74.22
2022-11-20T02:04:00.785Z,74.22
2022-11-20T02:05:07.709Z,74.22
2022-11-20T02:06:01.241Z,74.22
2022-11-20T02:07:01.247Z,74.22
2022-11-20T02:08:01.865Z,74.66
2022-11-20T02:09:00.301Z,74.66
2022-11-20T02:10:00.376Z,74.66
2022-11-20T02:11:00.250Z,74.66
2022-11-20T02:12:00.371Z,74.66
2022-11-20T02:13:00.330Z,75.04
2022-11-20T02:14:00.273Z,75.04
2022-11-20T02:15:00.600Z,75.04
2022-11-20T02:16:00.775Z,75.04
2022-11-20T02:17:00.283Z,75.04
2022-11-20T02:18:00.445Z,75.36
2022-11-20T02:19:01.413Z,75.36
2022-11-20T02:20:00.402Z,75.36
2022-11-20T02:21:05.475Z,75.36
2022-11-20T02:22:04.119Z,75.36
2022-11-20T02:23:09.355Z,75.81
2022-11-20T02:24:01.686Z,75.81
2022-11-20T02:25:02.480Z,75.81
2022-11-20T02:26:02.293Z,75.81
2022-11-20T02:27:05.618Z,75.81
2022-11-20T02:28:00.429Z,75.94
2022-11-20T02:29:02.159Z,75.94
2022-11-20T02:30:01.899Z,75.94
2022-11-20T02:31:00.685Z,75.94
2022-11-20T02:32:00.849Z,75.94
2022-11-20T02:33:00.287Z,76.13
2022-11-20T02:34:00.272Z,76.13
2022-11-20T02:35:10.227Z,76.13
2022-11-20T02:36:00.427Z,76.13
2022-11-20T02:37:00.365Z,76.13
2022-11-20T02:38:02.436Z,76.39
2022-11-20T02:39:00.362Z,76.39
2022-11-20T02:40:00.405Z,76.39
2022-11-20T02:41:00.279Z,76.39
2022-11-20T02:42:00.739Z,76.39
2022-11-20T02:43:00.277Z,76.77
2022-11-20T02:44:00.397Z,76.77
2022-11-20T02:45:00.253Z,76.77
2022-11-20T03:09:00.351Z,77.70
2022-11-20T03:10:00.264Z,77.70
2022-11-20T03:11:04.442Z,77.85
2022-11-20T03:12:00.232Z,77.85
2022-11-20T03:13:00.241Z,77.85
2022-11-20T03:14:01.985Z,77.85
2022-11-20T03:15:00.318Z,77.85
2022-11-20T03:16:09.152Z,78.07
2022-11-20T03:17:00.309Z,78.07
2022-11-20T03:18:00.319Z,78.07
2022-11-20T03:19:00.765Z,78.07
2022-11-20T03:20:00.341Z,78.07
2022-11-20T03:21:00.292Z,78.23
2022-11-20T03:23:00.353Z,78.23
2022-11-20T03:24:00.539Z,78.23
2022-11-20T03:25:00.316Z,78.23
2022-11-20T03:29:01.802Z,78.47
2022-11-20T03:30:00.626Z,78.47
2022-11-20T03:31:05.125Z,78.85
2022-11-20T03:32:00.238Z,78.85
2022-11-20T03:33:00.230Z,78.85
2022-11-20T03:34:00.626Z,78.85
2022-11-20T03:35:00.291Z,78.85
2022-11-20T03:36:02.720Z,79.02
2022-11-20T03:37:00.233Z,79.02
2022-11-20T03:38:00.242Z,79.02
2022-11-20T03:39:00.512Z,79.02
2022-11-20T03:40:00.359Z,79.02
2022-11-20T03:41:01.285Z,79.38
2022-11-20T03:42:00.252Z,79.38
2022-11-20T03:43:00.242Z,79.38
2022-11-20T03:44:01.504Z,79.38
2022-11-20T03:45:00.267Z,79.38
2022-11-20T03:46:00.295Z,79.48
2022-11-20T03:47:00.228Z,79.48
2022-11-20T03:48:00.240Z,79.48
2022-11-20T03:49:00.266Z,79.48
2022-11-20T03:50:00.224Z,79.48
2022-11-20T03:51:07.686Z,79.58
2022-11-20T03:52:00.260Z,79.58
2022-11-20T03:53:00.262Z,79.58
2022-11-20T03:54:01.118Z,79.58
2022-11-20T03:55:00.286Z,79.58
2022-11-20T03:56:00.233Z,80.08
2022-11-20T03:57:00.263Z,80.08
2022-11-20T03:58:00.291Z,80.08
2022-11-20T03:59:00.311Z,80.08
2022-11-20T04:00:00.317Z,80.08
2022-11-20T04:01:04.285Z,80.15
2022-11-20T04:02:00.320Z,80.15
2022-11-20T04:03:02.490Z,80.15
2022-11-20T04:04:00.302Z,80.15
2022-11-20T04:05:00.274Z,80.15
2022-11-20T04:06:02.377Z,80.57
2022-11-20T04:07:00.369Z,80.57
2022-11-20T04:08:00.244Z,80.57
2022-11-20T04:09:00.280Z,80.57
2022-11-20T04:10:00.279Z,80.57
2022-11-20T04:11:08.643Z,80.64
2022-11-20T04:12:00.302Z,80.64
2022-11-20T04:13:00.323Z,80.64
2022-11-20T04:14:01.620Z,80.64
2022-11-20T04:15:00.278Z,80.64
2022-11-20T04:16:00.280Z,80.56
2022-11-20T04:17:00.392Z,80.56
2022-11-20T04:18:00.308Z,80.56
2022-11-20T04:19:01.205Z,80.56
2022-11-20T04:20:00.441Z,80.56
2022-11-20T04:21:00.361Z,80.73
2022-11-20T04:22:00.294Z,80.73
2022-11-20T04:23:00.290Z,80.73
2022-11-20T04:24:00.300Z,80.73
2022-11-20T04:25:00.254Z,80.73
2022-11-20T04:26:01.419Z,80.73
2022-11-20T04:27:00.333Z,80.73
2022-11-20T04:28:00.251Z,80.73
2022-11-20T04:29:00.311Z,80.73
2022-11-20T04:30:00.252Z,80.73
2022-11-20T04:31:04.485Z,80.86
2022-11-20T04:32:00.246Z,80.86
2022-11-20T04:33:00.277Z,80.86
2022-11-20T04:34:01.080Z,80.86
2022-11-20T04:35:00.268Z,80.86
2022-11-20T04:36:01.748Z,81.35
2022-11-20T04:37:00.471Z,81.35
2022-11-20T04:38:00.460Z,81.35
2022-11-20T04:39:01.712Z,81.35
2022-11-20T04:40:00.262Z,81.35
2022-11-20T04:41:01.220Z,81.65
2022-11-20T04:42:00.246Z,81.65
2022-11-20T04:43:00.237Z,81.65
2022-11-20T04:44:01.925Z,81.65
2022-11-20T04:45:00.265Z,81.65
2022-11-20T04:46:00.666Z,81.90
2022-11-20T04:47:00.240Z,81.90
2022-11-20T04:48:01.296Z,81.90
2022-11-20T04:49:00.288Z,81.90
2022-11-20T04:50:00.402Z,81.90
2022-11-20T04:51:03.083Z,81.91
2022-11-20T04:52:00.276Z,81.91
2022-11-20T04:53:00.274Z,81.91
2022-11-20T04:54:00.285Z,81.91
2022-11-20T04:55:00.418Z,81.91
2022-11-20T04:56:01.941Z,82.16
2022-11-20T04:57:00.253Z,82.16
2022-11-20T04:58:00.239Z,82.16
2022-11-20T04:59:00.799Z,82.16
2022-11-20T05:00:00.487Z,82.16
2022-11-20T05:01:01.167Z,82.63
2022-11-20T05:02:00.305Z,82.63
2022-11-20T05:03:00.239Z,82.63
2022-11-20T05:04:00.229Z,82.63
2022-11-20T05:05:00.232Z,82.63
2022-11-20T05:06:01.265Z,82.62
2022-11-20T05:07:00.313Z,82.62
2022-11-20T05:08:00.376Z,82.62
2022-11-20T05:09:00.260Z,82.62
2022-11-20T05:10:00.237Z,82.62
2022-11-20T05:11:01.277Z,83.09
2022-11-20T05:12:00.237Z,83.09
2022-11-20T05:13:00.213Z,83.09
2022-11-20T05:14:00.235Z,83.09
2022-11-20T05:15:00.241Z,83.09
2022-11-20T05:16:02.735Z,83.35
2022-11-20T05:17:00.605Z,83.35
2022-11-20T05:18:00.230Z,83.35
2022-11-20T05:19:00.252Z,83.35
2022-11-20T05:20:00.283Z,83.35
2022-11-20T05:21:00.510Z,83.37
2022-11-20T05:22:00.282Z,83.37
2022-11-20T05:23:00.233Z,83.37
2022-11-20T05:24:00.237Z,83.37
2022-11-20T05:25:00.241Z,83.37
2022-11-20T05:26:00.334Z,83.40
2022-11-20T05:27:00.237Z,83.40
2022-11-20T05:28:00.261Z,83.40
2022-11-20T05:29:00.552Z,83.40
2022-11-20T05:30:00.246Z,83.40
2022-11-20T05:31:04.317Z,83.57
2022-11-20T05:32:00.260Z,83.57
2022-11-20T05:33:00.237Z,83.57
2022-11-20T05:34:00.281Z,83.57
2022-11-20T05:35:00.288Z,83.57
2022-11-20T05:36:00.525Z,83.78
2022-11-20T05:37:00.255Z,83.78
2022-11-20T05:38:00.283Z,83.78
2022-11-20T05:39:01.980Z,83.78
2022-11-20T05:40:00.380Z,83.78
2022-11-20T05:41:06.546Z,84.14
2022-11-20T05:42:00.258Z,84.14
2022-11-20T05:43:00.299Z,84.14
2022-11-20T05:44:00.283Z,84.14
2022-11-20T05:45:00.890Z,84.14
2022-11-20T05:46:00.519Z,84.13
2022-11-20T05:47:00.332Z,84.13
2022-11-20T05:48:00.688Z,84.13
2022-11-20T05:49:00.301Z,84.13
2022-11-20T05:50:00.683Z,84.13
2022-11-20T05:51:01.408Z,84.23
2022-11-20T05:52:00.255Z,84.23
2022-11-20T05:53:00.401Z,84.23
2022-11-20T05:54:00.259Z,84.23
2022-11-20T05:55:00.237Z,84.23
2022-11-20T05:56:01.070Z,83.91
2022-11-20T05:57:00.301Z,83.91
2022-11-20T05:58:00.273Z,83.91
2022-11-20T05:59:00.286Z,83.91
2022-11-20T06:00:00.562Z,83.91
2022-11-20T06:01:04.565Z,84.26
2022-11-20T06:02:00.245Z,84.26
2022-11-20T06:03:00.301Z,84.26
2022-11-20T06:04:00.282Z,84.26
2022-11-20T06:05:00.248Z,84.26
2022-11-20T06:06:01.038Z,84.10
2022-11-20T06:07:00.345Z,84.10
2022-11-20T06:08:00.667Z,84.10
2022-11-20T06:09:00.307Z,84.10
2022-11-20T06:10:00.296Z,84.10
2022-11-20T06:11:04.188Z,84.79
2022-11-20T06:12:00.449Z,84.79
2022-11-20T06:13:00.238Z,84.79
2022-11-20T06:14:00.261Z,84.79
2022-11-20T06:15:00.274Z,84.79
2022-11-20T06:16:00.432Z,84.65
2022-11-20T06:17:00.601Z,84.65
2022-11-20T06:18:00.232Z,84.65
2022-11-20T06:19:00.276Z,84.65
2022-11-20T06:20:00.324Z,84.65
2022-11-20T06:21:02.481Z,84.73
2022-11-20T06:22:00.238Z,84.73
2022-11-20T06:23:00.228Z,84.73
2022-11-20T06:24:00.245Z,84.73
2022-11-20T06:25:00.343Z,84.73
2022-11-20T06:26:02.361Z,84.54
2022-11-20T06:27:00.256Z,84.54
2022-11-20T06:28:00.219Z,84.54
2022-11-20T06:29:00.224Z,84.54
2022-11-20T06:30:00.249Z,84.54
2022-11-20T06:31:00.754Z,84.64
2022-11-20T06:32:00.346Z,84.64
2022-11-20T06:33:00.418Z,84.64
2022-11-20T06:34:00.696Z,84.64
2022-11-20T06:35:00.243Z,84.64
2022-11-20T06:36:05.689Z,84.80
2022-11-20T06:37:00.240Z,84.80
2022-11-20T06:38:00.251Z,84.80
2022-11-20T06:39:00.767Z,84.80
2022-11-20T06:40:00.247Z,84.80
2022-11-20T06:41:00.257Z,85.41
2022-11-20T06:42:00.255Z,85.41
2022-11-20T06:43:00.261Z,85.41
2022-11-20T06:44:00.268Z,85.41
2022-11-20T06:45:00.278Z,85.41
2022-11-20T06:46:00.259Z,85.13
2022-11-20T06:47:00.269Z,85.13
2022-11-20T06:48:00.253Z,85.13
2022-11-20T06:49:00.225Z,85.13
2022-11-20T06:50:00.249Z,85.13
2022-11-20T06:51:02.594Z,85.13
2022-11-20T06:52:00.320Z,85.13
2022-11-20T06:53:00.912Z,85.13
2022-11-20T06:54:00.264Z,85.13
2022-11-20T06:55:00.275Z,85.13
2022-11-20T06:56:00.221Z,84.98
2022-11-20T06:57:00.236Z,84.98
2022-11-20T06:58:00.337Z,84.98
2022-11-20T06:59:03.549Z,84.98
2022-11-20T07:00:00.317Z,84.98
2022-11-20T07:01:01.359Z,85.70
2022-11-20T07:02:00.244Z,85.70
2022-11-20T07:03:02.968Z,85.70
2022-11-20T07:04:00.339Z,85.70
2022-11-20T07:05:00.243Z,85.70
2022-11-20T07:06:00.702Z,85.19
2022-11-20T07:11:00.914Z,85.78
2022-11-20T07:12:00.287Z,85.78
2022-11-20T07:13:00.228Z,85.78
2022-11-20T07:14:00.229Z,85.78
2022-11-20T07:15:00.230Z,85.78
2022-11-20T07:16:01.581Z,85.68
2022-11-20T07:17:00.244Z,85.68
2022-11-20T07:18:00.617Z,85.68
2022-11-20T07:19:00.635Z,85.68
2022-11-20T07:20:00.238Z,85.68
2022-11-20T07:21:00.986Z,85.55
2022-11-20T07:22:00.278Z,85.55
2022-11-20T07:23:00.283Z,85.55
2022-11-20T07:24:00.274Z,85.55
2022-11-20T07:25:00.296Z,85.55
2022-11-20T07:26:06.611Z,86.12
2022-11-20T07:27:00.456Z,86.12
2022-11-20T07:28:00.512Z,86.12
2022-11-20T07:29:00.272Z,86.12
2022-11-20T07:30:00.561Z,86.12
2022-11-20T07:31:00.308Z,85.63
2022-11-20T07:32:00.250Z,85.63
2022-11-20T07:33:00.244Z,85.63
2022-11-20T07:34:00.419Z,85.63
2022-11-20T07:35:00.309Z,85.63
2022-11-20T07:36:00.637Z,85.34
2022-11-20T07:37:00.235Z,85.34
2022-11-20T07:38:00.238Z,85.34
2022-11-20T07:39:00.516Z,85.34
2022-11-20T07:40:00.236Z,85.34
2022-11-20T07:41:00.262Z,85.68
2022-11-20T07:42:00.239Z,85.68
2022-11-20T07:43:00.304Z,85.68
2022-11-20T07:44:00.243Z,85.68
2022-11-20T07:45:00.265Z,85.68
2022-11-20T07:46:00.296Z,85.31
2022-11-20T07:47:00.494Z,85.31
2022-11-20T07:48:00.295Z,85.31
2022-11-20T07:49:00.260Z,85.31
2022-11-20T07:50:00.362Z,85.31
2022-11-20T07:51:00.276Z,85.29
2022-11-20T07:52:04.334Z,85.29
2022-11-20T07:53:01.057Z,85.29
2022-11-20T07:54:00.290Z,85.29
2022-11-20T07:55:00.240Z,85.29
2022-11-20T07:56:00.472Z,85.13
2022-11-20T07:57:00.261Z,85.13
2022-11-20T07:58:00.273Z,85.13
2022-11-20T07:59:00.234Z,85.13
2022-11-20T08:00:00.462Z,85.13
2022-11-20T08:01:04.348Z,85.03
2022-11-20T08:02:00.283Z,85.03
2022-11-20T08:03:02.449Z,85.03
2022-11-20T08:04:00.239Z,85.03
2022-11-20T08:05:00.269Z,85.03
2022-11-20T08:06:00.840Z,85.14
2022-11-20T08:07:00.366Z,85.14
2022-11-20T08:08:00.278Z,85.14
2022-11-20T08:09:00.253Z,85.14
2022-11-20T08:10:00.256Z,85.14
2022-11-20T08:11:00.241Z,85.32
2022-11-20T08:12:00.250Z,85.32
2022-11-20T08:13:00.271Z,85.32
2022-11-20T08:14:00.310Z,85.32
2022-11-20T08:15:00.251Z,85.32
2022-11-20T08:16:00.244Z,85.20
2022-11-20T08:17:00.246Z,85.20
2022-11-20T08:18:29.417Z,85.20
2022-11-20T08:19:01.427Z,85.20
2022-11-20T08:20:00.261Z,85.20
2022-11-20T08:21:02.522Z,84.97
2022-11-20T08:22:00.264Z,84.97
2022-11-20T08:23:01.035Z,84.97
2022-11-20T08:24:00.274Z,84.97
2022-11-20T08:25:00.286Z,84.97
2022-11-20T08:26:00.387Z,85.09
2022-11-20T08:27:00.231Z,85.09
2022-11-20T08:28:07.912Z,85.09
2022-11-20T08:29:00.432Z,85.09
2022-11-20T08:30:00.280Z,85.09
2022-11-20T08:31:00.724Z,85.18
2022-11-20T08:32:00.230Z,85.18
2022-11-20T08:33:01.286Z,85.18
2022-11-20T08:34:00.238Z,85.18
2022-11-20T08:35:00.274Z,85.18
2022-11-20T08:36:00.779Z,85.19
2022-11-20T08:37:01.558Z,85.19
2022-11-20T08:38:00.254Z,85.19
2022-11-20T08:39:00.268Z,85.19
2022-11-20T08:40:00.247Z,85.19
2022-11-20T08:41:01.026Z,85.38
2022-11-20T08:42:00.242Z,85.38
2022-11-20T08:43:00.332Z,85.38
2022-11-20T08:44:01.343Z,85.38
2022-11-20T08:45:00.246Z,85.38
2022-11-20T08:46:00.321Z,85.27
2022-11-20T08:47:00.548Z,85.27
2022-11-20T08:48:00.751Z,85.27
2022-11-20T08:49:00.304Z,85.27
2022-11-20T08:50:00.241Z,85.27
2022-11-20T08:51:00.414Z,85.16
2022-11-20T08:52:00.245Z,85.16
2022-11-20T08:53:03.831Z,85.16
2022-11-20T08:54:00.332Z,85.16
2022-11-20T08:55:00.262Z,85.16
2022-11-20T08:56:00.354Z,85.23
2022-11-20T08:57:00.293Z,85.23
2022-11-20T08:58:03.769Z,85.23
2022-11-20T08:59:26.909Z,85.23
2022-11-20T09:00:07.145Z,85.23
2022-11-20T09:01:00.333Z,85.10
2022-11-20T09:02:00.259Z,85.10
2022-11-20T09:03:00.603Z,85.10
2022-11-20T09:04:00.240Z,85.10
2022-11-20T09:05:00.260Z,85.10
2022-11-20T09:06:05.380Z,85.14
2022-11-20T09:07:00.347Z,85.14
2022-11-20T09:08:00.245Z,85.14
2022-11-20T09:09:06.096Z,85.14
2022-11-20T09:10:22.754Z,85.14
2022-11-20T09:11:00.258Z,85.38
2022-11-20T09:12:00.222Z,85.38
2022-11-20T09:13:00.256Z,85.38
2022-11-20T09:14:00.251Z,85.38
2022-11-20T09:15:00.238Z,85.38
2022-11-20T09:16:01.955Z,85.23
2022-11-20T09:17:00.283Z,85.23
2022-11-20T09:18:01.356Z,85.23
2022-11-20T09:19:33.623Z,85.23
2022-11-20T09:20:00.348Z,85.23
2022-11-20T09:21:01.298Z,85.04
2022-11-20T09:22:00.248Z,85.04
2022-11-20T09:23:00.250Z,85.04
2022-11-20T09:24:00.232Z,85.04
2022-11-20T09:25:00.239Z,85.04
2022-11-20T09:26:02.414Z,84.89
2022-11-20T09:27:01.722Z,84.89
2022-11-20T09:28:00.246Z,84.89
2022-11-20T09:29:00.227Z,84.89
2022-11-20T09:30:00.234Z,84.89
2022-11-20T09:31:00.275Z,84.64
2022-11-20T09:32:00.350Z,84.64
2022-11-20T09:33:00.245Z,84.64
2022-11-20T09:34:00.267Z,84.64
2022-11-20T09:36:00.228Z,84.52
2022-11-20T09:37:02.994Z,84.52
2022-11-20T09:38:04.467Z,84.52
2022-11-20T09:39:00.275Z,84.52
2022-11-20T09:40:00.291Z,84.52
2022-11-20T09:41:04.469Z,84.73
2022-11-20T09:42:03.530Z,84.73
2022-11-20T09:43:10.204Z,84.73
2022-11-20T09:44:10.202Z,84.73
2022-11-20T09:45:10.199Z,84.73
2022-11-20T09:46:03.505Z,84.58
2022-11-20T09:47:02.841Z,84.58
2022-11-20T09:48:09.025Z,84.58
2022-11-20T09:49:10.146Z,84.58
2022-11-20T09:50:01.270Z,84.58
2022-11-20T09:51:10.177Z,84.45
2022-11-20T09:52:10.164Z,84.45
2022-11-20T09:53:10.146Z,84.45
2022-11-20T09:54:01.247Z,84.45
2022-11-20T09:55:01.765Z,84.45
2022-11-20T09:56:01.109Z,84.04
2022-11-20T09:57:02.559Z,84.04
2022-11-20T09:58:00.298Z,84.04
2022-11-20T09:59:03.559Z,84.04
2022-11-20T10:00:01.275Z,84.04
2022-11-20T10:01:07.642Z,84.21
2022-11-20T10:02:01.020Z,84.21
2022-11-20T10:03:03.836Z,84.21
2022-11-20T10:04:04.635Z,84.21
2022-11-20T10:05:06.258Z,84.21
2022-11-20T10:06:01.263Z,83.65
2022-11-20T10:07:30.906Z,83.65
2022-11-20T10:08:10.260Z,83.65
2022-11-20T10:09:00.228Z,83.65
2022-11-20T10:10:00.416Z,83.65
2022-11-20T10:11:07.762Z,83.64
2022-11-20T10:12:10.159Z,83.64
2022-11-20T10:13:00.215Z,83.64
2022-11-20T10:14:01.242Z,83.64
2022-11-20T10:15:03.517Z,83.64
2022-11-20T10:16:10.168Z,83.31
2022-11-20T10:17:01.262Z,83.31
2022-11-20T10:18:10.147Z,83.31
2022-11-20T10:19:01.231Z,83.31
2022-11-20T10:20:00.215Z,83.31
2022-11-20T10:21:01.240Z,83.12
2022-11-20T10:22:10.164Z,83.12
2022-11-20T10:23:10.185Z,83.12
2022-11-20T10:24:00.237Z,83.12
2022-11-20T10:25:05.753Z,83.12
2022-11-20T10:26:03.042Z,82.74
2022-11-20T10:27:07.239Z,82.74
2022-11-20T10:28:07.923Z,82.74
2022-11-20T10:29:04.725Z,82.74
2022-11-20T10:30:00.224Z,82.74
2022-11-20T10:31:02.641Z,82.73
2022-11-20T10:32:02.526Z,82.73
2022-11-20T10:33:04.626Z,82.73
2022-11-20T10:34:12.141Z,82.73
2022-11-20T10:35:04.347Z,82.73
2022-11-20T10:36:10.156Z,82.33
2022-11-20T10:37:06.660Z,82.33
2022-11-20T10:38:02.666Z,82.33
2022-11-20T10:39:05.227Z,82.33
2022-11-20T10:40:04.089Z,82.33
2022-11-20T10:41:02.125Z,82.26
2022-11-20T10:42:00.599Z,82.26
2022-11-20T10:43:02.781Z,82.26
2022-11-20T10:44:10.157Z,82.26
2022-11-20T10:45:10.194Z,82.26
2022-11-20T10:46:05.585Z,82.08
2022-11-20T10:47:00.249Z,82.08
2022-11-20T10:48:10.192Z,82.08
2022-11-20T10:49:00.371Z,82.08
2022-11-20T10:50:03.071Z,82.08
2022-11-20T10:51:10.150Z,81.81
2022-11-20T10:52:09.113Z,81.81
2022-11-20T10:53:01.273Z,81.81
2022-11-20T10:54:10.165Z,81.81
2022-11-20T10:55:00.252Z,81.81
2022-11-20T10:56:04.322Z,81.63
2022-11-20T10:57:03.579Z,81.63
2022-11-20T10:58:00.252Z,81.63
2022-11-20T10:59:10.174Z,81.63
2022-11-20T11:00:05.346Z,81.63
2022-11-20T11:01:10.229Z,81.19
2022-11-20T11:02:03.202Z,81.19
2022-11-20T11:03:00.340Z,81.19
2022-11-20T11:04:01.089Z,81.19
2022-11-20T11:05:10.387Z,81.19
2022-11-20T11:06:06.884Z,80.67
2022-11-20T11:07:10.238Z,80.67
2022-11-20T11:08:00.709Z,80.67
2022-11-20T11:09:02.210Z,80.67
2022-11-20T11:10:00.682Z,80.67
2022-11-20T11:11:02.546Z,80.04
2022-11-20T11:12:05.730Z,80.04
2022-11-20T11:13:00.354Z,80.04
2022-11-20T11:14:08.023Z,80.04
2022-11-20T11:15:00.364Z,80.04
2022-11-20T11:16:00.446Z,78.89
2022-11-20T11:17:00.353Z,78.89
2022-11-20T11:18:00.339Z,78.89
2022-11-20T11:19:10.194Z,78.89
2022-11-20T11:20:01.473Z,78.89
2022-11-20T11:21:01.435Z,78.87
2022-11-20T11:22:00.842Z,78.87
2022-11-20T11:23:00.441Z,78.87
2022-11-20T11:24:19.661Z,78.87
2022-11-20T11:25:00.840Z,78.87
2022-11-20T11:26:01.439Z,78.36
2022-11-20T11:27:01.351Z,78.36
2022-11-20T11:28:04.522Z,78.36
2022-11-20T11:29:01.467Z,78.36
2022-11-20T11:30:10.183Z,78.36
2022-11-20T11:31:00.331Z,77.82
2022-11-20T11:32:10.167Z,77.82
2022-11-20T11:33:04.474Z,77.82
2022-11-20T11:34:08.216Z,77.82
2022-11-20T11:35:01.262Z,77.82
2022-11-20T11:36:02.089Z,77.70
2022-11-20T11:37:01.648Z,77.70
2022-11-20T11:38:05.202Z,77.70
2022-11-20T11:39:00.875Z,77.70
2022-11-20T11:40:23.053Z,77.70
2022-11-20T11:41:00.905Z,75.47
2022-11-20T11:42:00.876Z,75.47
2022-11-20T11:43:02.361Z,75.47
2022-11-20T11:44:10.156Z,75.47
2022-11-20T11:45:00.477Z,75.47
2022-11-20T11:46:00.344Z,74.40
2022-11-20T11:47:01.521Z,74.40
2022-11-20T11:48:02.944Z,74.40
2022-11-20T11:49:01.826Z,74.40
2022-11-20T11:50:10.197Z,74.40
2022-11-20T11:51:00.361Z,74.77
2022-11-20T11:52:10.160Z,74.77
2022-11-20T11:53:08.895Z,74.77
2022-11-20T11:54:00.833Z,74.77
2022-11-20T11:55:03.146Z,74.77
2022-11-20T11:56:07.501Z,74.81
2022-11-20T11:57:02.116Z,74.81
2022-11-20T11:58:10.178Z,74.81
2022-11-20T11:59:04.086Z,74.81
2022-11-20T12:00:04.483Z,74.81
2022-11-20T12:01:10.161Z,73.22
2022-11-20T12:02:04.154Z,73.22
2022-11-20T12:03:08.803Z,73.22
2022-11-20T12:04:01.275Z,73.22
2022-11-20T12:05:04.125Z,73.22
2022-11-20T12:06:03.522Z,74.12
2022-11-20T12:07:18.380Z,74.12
2022-11-20T12:08:06.936Z,74.12
2022-11-20T12:09:03.165Z,74.12
2022-11-20T12:10:01.514Z,74.12
2022-11-20T12:11:06.769Z,73.92
2022-11-20T12:12:10.348Z,73.92
2022-11-20T12:13:04.146Z,73.92
2022-11-20T12:14:03.924Z,73.92
2022-11-20T12:15:00.807Z,73.92
2022-11-20T12:16:02.825Z,74.45
2022-11-20T12:17:01.243Z,74.45
2022-11-20T12:18:00.561Z,74.45
2022-11-20T12:19:00.347Z,74.45
2022-11-20T12:20:00.330Z,74.45
2022-11-20T12:21:10.199Z,74.00
2022-11-20T12:22:06.845Z,74.00
2022-11-20T12:23:05.770Z,74.00
2022-11-20T12:24:10.187Z,74.00
2022-11-20T12:25:10.210Z,74.00
2022-11-20T12:26:02.796Z,73.09
2022-11-20T12:27:01.293Z,73.09
2022-11-20T12:28:10.196Z,73.09
2022-11-20T12:29:00.251Z,73.09
2022-11-20T12:30:10.224Z,73.09
2022-11-20T12:31:00.406Z,71.59
2022-11-20T12:32:03.516Z,71.59
2022-11-20T12:33:01.272Z,71.59
2022-11-20T12:34:10.189Z,71.59
2022-11-20T12:35:10.044Z,71.59
2022-11-20T12:36:10.201Z,72.32
2022-11-20T12:37:01.261Z,72.32
2022-11-20T12:38:10.187Z,72.32
2022-11-20T12:39:01.247Z,72.32
2022-11-20T12:40:07.356Z,72.32
2022-11-20T12:41:10.195Z,72.03
2022-11-20T12:42:08.941Z,72.03
2022-11-20T12:43:06.273Z,72.03
2022-11-20T12:44:10.205Z,72.03
2022-11-20T12:45:10.267Z,72.03
2022-11-20T12:46:07.862Z,69.99
2022-11-20T12:47:10.172Z,69.99
2022-11-20T12:48:01.236Z,69.99
2022-11-20T12:49:10.191Z,69.99
2022-11-20T12:50:00.235Z,69.99
2022-11-20T12:51:16.038Z,68.46
2022-11-20T12:52:10.243Z,68.46
2022-11-20T12:53:04.270Z,68.46
2022-11-20T12:54:01.295Z,68.46
2022-11-20T12:55:10.236Z,68.46
2022-11-20T12:56:00.246Z,68.79
2022-11-20T12:57:06.501Z,68.79
2022-11-20T12:58:10.190Z,68.79
2022-11-20T12:59:10.170Z,68.79
2022-11-20T13:00:07.204Z,68.79
2022-11-20T13:01:09.295Z,68.68
2022-11-20T13:02:09.546Z,68.68
2022-11-20T13:03:10.191Z,68.68
2022-11-20T13:04:06.474Z,68.68
2022-11-20T13:05:06.779Z,68.68
2022-11-20T13:06:10.189Z,66.49
2022-11-20T13:07:02.483Z,66.49
2022-11-20T13:08:01.008Z,66.49
2022-11-20T13:09:01.195Z,66.49
2022-11-20T13:10:01.090Z,66.49
2022-11-20T13:11:08.549Z,67.10
2022-11-20T13:12:10.215Z,67.10
2022-11-20T13:13:08.274Z,67.10
2022-11-20T13:14:03.506Z,67.10
2022-11-20T13:15:10.232Z,67.10
2022-11-20T13:16:04.310Z,68.55
2022-11-20T13:17:10.272Z,68.55
2022-11-20T13:18:01.462Z,68.55
2022-11-20T13:19:03.155Z,68.55
2022-11-20T13:20:00.564Z,68.55
2022-11-20T13:21:00.364Z,68.60
2022-11-20T13:22:00.405Z,68.60
2022-11-20T13:23:00.268Z,68.60
2022-11-20T13:24:05.408Z,68.60